sensor_id;sensor_type;location;lat;lon;timestamp;temperature;humidity
2603;DHT22;1311;47.966;7.958;2023-09-07T00:01:50;16.10;99.90
2603;DHT22;1311;47.966;7.958;2023-09-07T00:04:18;16.10;99.90
2603;DHT22;1311;47.966;7.958;2023-09-07T00:06:45;16.10;99.90
2603;DHT22;1311;47.966;7.958;2023-09-07T00:09:11;16.10;99.90
2603;DHT22;1311;47.966;7.958;2023-09-07T00:11:39;16.00;99.90
2603;DHT22;1311;47.966;7.958;2023-09-07T00:14:07;16.00;99.90
2603;DHT22;1311;47.966;7.958;2023-09-07T00:16:34;16.00;99.90
2603;DHT22;1311;47.966;7.958;2023-09-07T00:19:01;16.00;99.90
2603;DHT22;1311;47.966;7.958;2023-09-07T00:21:28;15.90;99.90
2603;DHT22;1311;47.966;7.958;2023-09-07T00:23:55;15.90;99.90
2603;DHT22;1311;47.966;7.958;2023-09-07T00:26:22;15.90;99.90
2603;DHT22;1311;47.966;7.958;2023-09-07T00:28:48;15.90;99.90
2603;DHT22;1311;47.966;7.958;2023-09-07T00:31:16;15.90;99.90
2603;DHT22;1311;47.966;7.958;2023-09-07T00:33:43;15.90;99.90
2603;DHT22;1311;47.966;7.958;2023-09-07T00:36:10;15.90;99.90
2603;DHT22;1311;47.966;7.958;2023-09-07T00:38:37;15.80;99.90
2603;DHT22;1311;47.966;7.958;2023-09-07T00:41:03;15.80;99.90
2603;DHT22;1311;47.966;7.958;2023-09-07T00:43:30;15.80;99.90
2603;DHT22;1311;47.966;7.958;2023-09-07T00:45:57;15.80;99.90
2603;DHT22;1311;47.966;7.958;2023-09-07T00:48:25;15.80;99.90
2603;DHT22;1311;47.966;7.958;2023-09-07T00:50:52;15.80;99.90
2603;DHT22;1311;47.966;7.958;2023-09-07T00:53:20;15.70;99.90
2603;DHT22;1311;47.966;7.958;2023-09-07T00:55:48;15.70;99.90
2603;DHT22;1311;47.966;7.958;2023-09-07T00:58:14;15.70;99.90
2603;DHT22;1311;47.966;7.958;2023-09-07T01:00:41;15.70;99.90
2603;DHT22;1311;47.966;7.958;2023-09-07T01:03:08;15.70;99.90
2603;DHT22;1311;47.966;7.958;2023-09-07T01:05:41;15.60;99.90
2603;DHT22;1311;47.966;7.958;2023-09-07T01:08:15;15.70;99.90
2603;DHT22;1311;47.966;7.958;2023-09-07T01:10:45;15.70;99.90
2603;DHT22;1311;47.966;7.958;2023-09-07T01:13:11;15.60;99.90
2603;DHT22;1311;47.966;7.958;2023-09-07T01:15:38;15.60;99.90
2603;DHT22;1311;47.966;7.958;2023-09-07T01:18:06;15.60;99.90
2603;DHT22;1311;47.966;7.958;2023-09-07T01:20:36;15.60;99.90
2603;DHT22;1311;47.966;7.958;2023-09-07T01:23:04;15.60;99.90
2603;DHT22;1311;47.966;7.958;2023-09-07T01:25:31;15.50;99.90
2603;DHT22;1311;47.966;7.958;2023-09-07T01:27:58;15.50;99.90
2603;DHT22;1311;47.966;7.958;2023-09-07T01:30:27;15.40;99.90
2603;DHT22;1311;47.966;7.958;2023-09-07T01:32:53;15.40;99.90
2603;DHT22;1311;47.966;7.958;2023-09-07T01:35:20;15.40;99.90
2603;DHT22;1311;47.966;7.958;2023-09-07T01:37:49;15.40;99.90
2603;DHT22;1311;47.966;7.958;2023-09-07T01:40:17;15.30;99.90
2603;DHT22;1311;47.966;7.958;2023-09-07T01:42:44;15.30;99.90
2603;DHT22;1311;47.966;7.958;2023-09-07T01:45:10;15.30;99.90
2603;DHT22;1311;47.966;7.958;2023-09-07T01:47:37;15.30;99.90
2603;DHT22;1311;47.966;7.958;2023-09-07T01:50:05;15.30;99.90
2603;DHT22;1311;47.966;7.958;2023-09-07T01:52:32;15.30;99.90
2603;DHT22;1311;47.966;7.958;2023-09-07T01:54:58;15.30;99.90
2603;DHT22;1311;47.966;7.958;2023-09-07T01:57:26;15.30;99.90
2603;DHT22;1311;47.966;7.958;2023-09-07T01:59:53;15.30;99.90
2603;DHT22;1311;47.966;7.958;2023-09-07T02:02:20;15.20;99.90
2603;DHT22;1311;47.966;7.958;2023-09-07T02:04:47;15.20;99.90
2603;DHT22;1311;47.966;7.958;2023-09-07T02:07:14;15.20;99.90
2603;DHT22;1311;47.966;7.958;2023-09-07T02:09:41;15.20;99.90
2603;DHT22;1311;47.966;7.958;2023-09-07T02:12:08;15.20;99.90
2603;DHT22;1311;47.966;7.958;2023-09-07T02:14:37;15.20;99.90
2603;DHT22;1311;47.966;7.958;2023-09-07T02:17:04;15.20;99.90
2603;DHT22;1311;47.966;7.958;2023-09-07T02:19:31;15.10;99.90
2603;DHT22;1311;47.966;7.958;2023-09-07T02:21:57;15.10;99.90
2603;DHT22;1311;47.966;7.958;2023-09-07T02:24:24;15.00;99.90
2603;DHT22;1311;47.966;7.958;2023-09-07T02:26:51;15.10;99.90
2603;DHT22;1311;47.966;7.958;2023-09-07T02:29:17;15.10;99.90
2603;DHT22;1311;47.966;7.958;2023-09-07T02:31:45;15.10;99.90
2603;DHT22;1311;47.966;7.958;2023-09-07T02:34:12;15.10;99.90
2603;DHT22;1311;47.966;7.958;2023-09-07T02:36:39;15.10;99.90
2603;DHT22;1311;47.966;7.958;2023-09-07T02:39:06;15.10;99.90
2603;DHT22;1311;47.966;7.958;2023-09-07T02:41:34;15.10;99.90
2603;DHT22;1311;47.966;7.958;2023-09-07T02:44:01;15.10;99.90
2603;DHT22;1311;47.966;7.958;2023-09-07T02:46:28;15.10;99.90
2603;DHT22;1311;47.966;7.958;2023-09-07T02:48:56;15.10;99.90
2603;DHT22;1311;47.966;7.958;2023-09-07T02:51:23;15.10;99.90
2603;DHT22;1311;47.966;7.958;2023-09-07T02:53:50;15.10;99.90
2603;DHT22;1311;47.966;7.958;2023-09-07T02:56:17;15.00;99.90
2603;DHT22;1311;47.966;7.958;2023-09-07T02:58:44;15.10;99.90
2603;DHT22;1311;47.966;7.958;2023-09-07T03:01:11;15.10;99.90
2603;DHT22;1311;47.966;7.958;2023-09-07T03:03:39;15.00;99.90
2603;DHT22;1311;47.966;7.958;2023-09-07T03:06:10;15.00;99.90
2603;DHT22;1311;47.966;7.958;2023-09-07T03:08:37;15.00;99.90
2603;DHT22;1311;47.966;7.958;2023-09-07T03:11:04;15.10;99.90
2603;DHT22;1311;47.966;7.958;2023-09-07T03:13:31;15.00;99.90
2603;DHT22;1311;47.966;7.958;2023-09-07T03:15:58;15.00;99.90
2603;DHT22;1311;47.966;7.958;2023-09-07T03:18:25;15.00;99.90
2603;DHT22;1311;47.966;7.958;2023-09-07T03:20:54;15.00;99.90
2603;DHT22;1311;47.966;7.958;2023-09-07T03:23:22;15.00;99.90
2603;DHT22;1311;47.966;7.958;2023-09-07T03:25:49;15.00;99.90
2603;DHT22;1311;47.966;7.958;2023-09-07T03:28:15;15.00;99.90
2603;DHT22;1311;47.966;7.958;2023-09-07T03:30:42;15.00;99.90
2603;DHT22;1311;47.966;7.958;2023-09-07T03:33:09;15.00;99.90
2603;DHT22;1311;47.966;7.958;2023-09-07T03:35:36;15.00;99.90
2603;DHT22;1311;47.966;7.958;2023-09-07T03:38:03;14.90;99.90
2603;DHT22;1311;47.966;7.958;2023-09-07T03:40:31;14.90;99.90
2603;DHT22;1311;47.966;7.958;2023-09-07T03:42:58;14.90;99.90
2603;DHT22;1311;47.966;7.958;2023-09-07T03:45:24;14.90;99.90
2603;DHT22;1311;47.966;7.958;2023-09-07T03:47:51;14.80;99.90
2603;DHT22;1311;47.966;7.958;2023-09-07T03:50:18;14.80;99.90
2603;DHT22;1311;47.966;7.958;2023-09-07T03:52:45;14.80;99.90
2603;DHT22;1311;47.966;7.958;2023-09-07T03:55:11;14.80;99.90
2603;DHT22;1311;47.966;7.958;2023-09-07T03:57:40;14.70;99.90
2603;DHT22;1311;47.966;7.958;2023-09-07T04:00:07;14.80;99.90
2603;DHT22;1311;47.966;7.958;2023-09-07T04:02:34;14.80;99.90
2603;DHT22;1311;47.966;7.958;2023-09-07T04:05:01;14.80;99.90
2603;DHT22;1311;47.966;7.958;2023-09-07T04:07:30;14.80;99.90
2603;DHT22;1311;47.966;7.958;2023-09-07T04:09:57;14.80;99.90
2603;DHT22;1311;47.966;7.958;2023-09-07T04:12:24;14.80;99.90
2603;DHT22;1311;47.966;7.958;2023-09-07T04:14:52;14.80;99.90
2603;DHT22;1311;47.966;7.958;2023-09-07T04:17:19;14.70;99.90
2603;DHT22;1311;47.966;7.958;2023-09-07T04:19:46;14.70;99.90
2603;DHT22;1311;47.966;7.958;2023-09-07T04:22:13;14.70;99.90
2603;DHT22;1311;47.966;7.958;2023-09-07T04:24:40;14.70;99.90
2603;DHT22;1311;47.966;7.958;2023-09-07T04:27:06;14.60;99.90
2603;DHT22;1311;47.966;7.958;2023-09-07T04:29:33;14.60;99.90
2603;DHT22;1311;47.966;7.958;2023-09-07T04:32:01;14.60;99.90
2603;DHT22;1311;47.966;7.958;2023-09-07T04:34:28;14.60;99.90
2603;DHT22;1311;47.966;7.958;2023-09-07T04:36:55;14.60;99.90
2603;DHT22;1311;47.966;7.958;2023-09-07T04:39:22;14.60;99.90
2603;DHT22;1311;47.966;7.958;2023-09-07T04:41:48;14.60;99.90
2603;DHT22;1311;47.966;7.958;2023-09-07T04:44:17;14.60;99.90
2603;DHT22;1311;47.966;7.958;2023-09-07T04:46:44;14.70;99.90
2603;DHT22;1311;47.966;7.958;2023-09-07T04:49:12;14.60;99.90
2603;DHT22;1311;47.966;7.958;2023-09-07T04:51:39;14.60;99.90
2603;DHT22;1311;47.966;7.958;2023-09-07T04:54:06;14.60;99.90
2603;DHT22;1311;47.966;7.958;2023-09-07T04:56:33;14.60;99.90
2603;DHT22;1311;47.966;7.958;2023-09-07T04:58:59;14.60;99.90
2603;DHT22;1311;47.966;7.958;2023-09-07T05:01:26;14.60;99.90
2603;DHT22;1311;47.966;7.958;2023-09-07T05:03:53;14.70;99.90
2603;DHT22;1311;47.966;7.958;2023-09-07T05:06:21;14.70;99.90
2603;DHT22;1311;47.966;7.958;2023-09-07T05:08:49;14.70;99.90
2603;DHT22;1311;47.966;7.958;2023-09-07T05:11:16;14.80;99.90
2603;DHT22;1311;47.966;7.958;2023-09-07T05:13:42;14.70;99.90
2603;DHT22;1311;47.966;7.958;2023-09-07T05:16:09;14.80;99.90
2603;DHT22;1311;47.966;7.958;2023-09-07T05:18:36;14.80;99.90
2603;DHT22;1311;47.966;7.958;2023-09-07T05:21:11;14.80;99.90
2603;DHT22;1311;47.966;7.958;2023-09-07T05:23:40;14.90;99.90
2603;DHT22;1311;47.966;7.958;2023-09-07T05:26:07;15.60;99.90
2603;DHT22;1311;47.966;7.958;2023-09-07T05:28:33;16.60;99.90
2603;DHT22;1311;47.966;7.958;2023-09-07T05:31:00;17.20;99.90
2603;DHT22;1311;47.966;7.958;2023-09-07T05:33:27;17.70;99.90
2603;DHT22;1311;47.966;7.958;2023-09-07T05:35:54;18.10;99.90
2603;DHT22;1311;47.966;7.958;2023-09-07T05:38:21;18.50;99.90
2603;DHT22;1311;47.966;7.958;2023-09-07T05:40:49;18.90;99.90
2603;DHT22;1311;47.966;7.958;2023-09-07T05:43:19;19.20;99.90
2603;DHT22;1311;47.966;7.958;2023-09-07T05:45:46;19.40;99.90
2603;DHT22;1311;47.966;7.958;2023-09-07T05:48:13;19.50;99.90
2603;DHT22;1311;47.966;7.958;2023-09-07T05:50:42;19.60;99.90
2603;DHT22;1311;47.966;7.958;2023-09-07T05:53:09;19.50;99.90
2603;DHT22;1311;47.966;7.958;2023-09-07T05:55:36;19.20;99.90
2603;DHT22;1311;47.966;7.958;2023-09-07T05:58:06;19.10;99.90
2603;DHT22;1311;47.966;7.958;2023-09-07T06:00:34;19.00;99.90
2603;DHT22;1311;47.966;7.958;2023-09-07T06:03:01;18.90;99.90
2603;DHT22;1311;47.966;7.958;2023-09-07T06:05:28;18.80;99.90
2603;DHT22;1311;47.966;7.958;2023-09-07T06:07:55;18.70;99.90
2603;DHT22;1311;47.966;7.958;2023-09-07T06:10:22;18.60;99.90
2603;DHT22;1311;47.966;7.958;2023-09-07T06:12:49;18.50;99.90
2603;DHT22;1311;47.966;7.958;2023-09-07T06:15:17;18.40;99.90
2603;DHT22;1311;47.966;7.958;2023-09-07T06:17:44;18.30;99.90
2603;DHT22;1311;47.966;7.958;2023-09-07T06:20:12;18.30;99.90
2603;DHT22;1311;47.966;7.958;2023-09-07T06:22:38;18.30;99.90
2603;DHT22;1311;47.966;7.958;2023-09-07T06:25:05;18.30;99.90
2603;DHT22;1311;47.966;7.958;2023-09-07T06:27:32;18.30;99.90
2603;DHT22;1311;47.966;7.958;2023-09-07T06:29:59;18.30;99.90
2603;DHT22;1311;47.966;7.958;2023-09-07T06:32:27;18.30;99.90
2603;DHT22;1311;47.966;7.958;2023-09-07T06:34:54;18.40;99.90
2603;DHT22;1311;47.966;7.958;2023-09-07T06:37:20;18.40;99.90
2603;DHT22;1311;47.966;7.958;2023-09-07T06:39:49;18.50;99.90
2603;DHT22;1311;47.966;7.958;2023-09-07T06:42:17;18.40;99.90
2603;DHT22;1311;47.966;7.958;2023-09-07T06:44:44;18.50;99.90
2603;DHT22;1311;47.966;7.958;2023-09-07T06:47:11;18.60;99.90
2603;DHT22;1311;47.966;7.958;2023-09-07T06:49:39;18.70;99.90
2603;DHT22;1311;47.966;7.958;2023-09-07T06:52:06;18.70;99.90
2603;DHT22;1311;47.966;7.958;2023-09-07T06:54:33;18.80;99.90
2603;DHT22;1311;47.966;7.958;2023-09-07T06:57:00;18.80;99.90
2603;DHT22;1311;47.966;7.958;2023-09-07T06:59:26;19.00;99.90
2603;DHT22;1311;47.966;7.958;2023-09-07T07:01:53;19.10;99.90
2603;DHT22;1311;47.966;7.958;2023-09-07T07:04:20;19.20;99.90
2603;DHT22;1311;47.966;7.958;2023-09-07T07:06:48;19.20;99.90
2603;DHT22;1311;47.966;7.958;2023-09-07T07:09:15;19.30;99.90
2603;DHT22;1311;47.966;7.958;2023-09-07T07:11:42;19.40;99.90
2603;DHT22;1311;47.966;7.958;2023-09-07T07:14:09;19.50;99.90
2603;DHT22;1311;47.966;7.958;2023-09-07T07:16:36;19.60;99.90
2603;DHT22;1311;47.966;7.958;2023-09-07T07:19:03;19.60;99.90
2603;DHT22;1311;47.966;7.958;2023-09-07T07:21:30;19.70;99.90
2603;DHT22;1311;47.966;7.958;2023-09-07T07:23:58;19.80;99.90
2603;DHT22;1311;47.966;7.958;2023-09-07T07:26:25;19.90;99.90
2603;DHT22;1311;47.966;7.958;2023-09-07T07:28:51;20.00;99.90
2603;DHT22;1311;47.966;7.958;2023-09-07T07:31:18;20.10;99.90
2603;DHT22;1311;47.966;7.958;2023-09-07T07:33:46;20.20;99.90
2603;DHT22;1311;47.966;7.958;2023-09-07T07:36:13;20.20;99.90
2603;DHT22;1311;47.966;7.958;2023-09-07T07:38:40;20.30;99.90
2603;DHT22;1311;47.966;7.958;2023-09-07T07:41:08;20.40;99.90
2603;DHT22;1311;47.966;7.958;2023-09-07T07:43:35;20.50;99.90
2603;DHT22;1311;47.966;7.958;2023-09-07T07:46:02;20.60;99.90
2603;DHT22;1311;47.966;7.958;2023-09-07T07:48:28;20.60;99.90
2603;DHT22;1311;47.966;7.958;2023-09-07T07:50:56;20.70;99.90
2603;DHT22;1311;47.966;7.958;2023-09-07T07:53:23;20.80;99.90
2603;DHT22;1311;47.966;7.958;2023-09-07T07:55:50;20.80;99.90
2603;DHT22;1311;47.966;7.958;2023-09-07T07:58:18;21.00;99.90
2603;DHT22;1311;47.966;7.958;2023-09-07T08:00:44;21.00;99.90
2603;DHT22;1311;47.966;7.958;2023-09-07T08:03:13;21.10;99.90
2603;DHT22;1311;47.966;7.958;2023-09-07T08:05:40;21.20;99.90
2603;DHT22;1311;47.966;7.958;2023-09-07T08:08:07;21.20;99.90
2603;DHT22;1311;47.966;7.958;2023-09-07T08:10:34;21.30;99.90
2603;DHT22;1311;47.966;7.958;2023-09-07T08:13:02;21.40;99.90
2603;DHT22;1311;47.966;7.958;2023-09-07T08:15:31;21.40;99.90
2603;DHT22;1311;47.966;7.958;2023-09-07T08:17:58;21.60;99.90
2603;DHT22;1311;47.966;7.958;2023-09-07T08:20:25;21.70;99.90
2603;DHT22;1311;47.966;7.958;2023-09-07T08:22:52;21.70;99.90
2603;DHT22;1311;47.966;7.958;2023-09-07T08:25:19;21.70;99.90
2603;DHT22;1311;47.966;7.958;2023-09-07T08:27:47;21.80;99.90
2603;DHT22;1311;47.966;7.958;2023-09-07T08:30:16;21.90;99.90
2603;DHT22;1311;47.966;7.958;2023-09-07T08:32:45;22.00;99.90
2603;DHT22;1311;47.966;7.958;2023-09-07T08:35:13;22.10;99.90
2603;DHT22;1311;47.966;7.958;2023-09-07T08:37:40;22.30;99.90
2603;DHT22;1311;47.966;7.958;2023-09-07T08:40:08;22.40;99.90
2603;DHT22;1311;47.966;7.958;2023-09-07T08:42:36;22.40;99.90
2603;DHT22;1311;47.966;7.958;2023-09-07T08:45:04;22.50;99.90
2603;DHT22;1311;47.966;7.958;2023-09-07T08:47:34;22.60;99.90
2603;DHT22;1311;47.966;7.958;2023-09-07T08:50:03;22.70;99.90
2603;DHT22;1311;47.966;7.958;2023-09-07T08:52:31;22.70;99.90
2603;DHT22;1311;47.966;7.958;2023-09-07T08:54:58;22.70;99.90
2603;DHT22;1311;47.966;7.958;2023-09-07T08:57:27;22.90;99.90
2603;DHT22;1311;47.966;7.958;2023-09-07T08:59:54;23.00;99.90
2603;DHT22;1311;47.966;7.958;2023-09-07T09:02:21;23.10;99.90
2603;DHT22;1311;47.966;7.958;2023-09-07T09:04:48;23.10;99.90
2603;DHT22;1311;47.966;7.958;2023-09-07T09:07:16;23.20;99.90
2603;DHT22;1311;47.966;7.958;2023-09-07T09:09:44;23.30;99.90
2603;DHT22;1311;47.966;7.958;2023-09-07T09:12:11;23.40;99.90
2603;DHT22;1311;47.966;7.958;2023-09-07T09:14:42;23.50;99.90
2603;DHT22;1311;47.966;7.958;2023-09-07T09:17:11;23.60;99.90
2603;DHT22;1311;47.966;7.958;2023-09-07T09:19:38;23.80;99.90
2603;DHT22;1311;47.966;7.958;2023-09-07T09:22:05;23.80;99.90
2603;DHT22;1311;47.966;7.958;2023-09-07T09:24:34;24.00;99.90
2603;DHT22;1311;47.966;7.958;2023-09-07T09:27:00;24.20;99.90
2603;DHT22;1311;47.966;7.958;2023-09-07T09:29:27;24.30;99.90
2603;DHT22;1311;47.966;7.958;2023-09-07T09:31:54;24.40;99.90
2603;DHT22;1311;47.966;7.958;2023-09-07T09:34:21;24.60;99.90
2603;DHT22;1311;47.966;7.958;2023-09-07T09:36:49;24.60;99.90
2603;DHT22;1311;47.966;7.958;2023-09-07T09:39:22;24.60;99.90
2603;DHT22;1311;47.966;7.958;2023-09-07T09:41:52;24.40;99.90
2603;DHT22;1311;47.966;7.958;2023-09-07T09:44:22;24.70;99.90
2603;DHT22;1311;47.966;7.958;2023-09-07T09:46:51;24.70;99.90
2603;DHT22;1311;47.966;7.958;2023-09-07T09:49:20;24.70;99.90
2603;DHT22;1311;47.966;7.958;2023-09-07T09:51:48;24.90;99.90
2603;DHT22;1311;47.966;7.958;2023-09-07T09:54:16;25.00;93.40
2603;DHT22;1311;47.966;7.958;2023-09-07T09:56:44;25.10;90.60
2603;DHT22;1311;47.966;7.958;2023-09-07T09:59:13;25.20;58.70
2603;DHT22;1311;47.966;7.958;2023-09-07T10:01:43;25.20;1.00
2603;DHT22;1311;47.966;7.958;2023-09-07T10:04:11;25.20;1.00
2603;DHT22;1311;47.966;7.958;2023-09-07T10:06:39;25.40;1.00
2603;DHT22;1311;47.966;7.958;2023-09-07T10:09:06;25.50;1.00
2603;DHT22;1311;47.966;7.958;2023-09-07T10:11:37;25.70;1.00
2603;DHT22;1311;47.966;7.958;2023-09-07T10:14:06;25.90;1.00
2603;DHT22;1311;47.966;7.958;2023-09-07T10:16:44;25.90;1.00
2603;DHT22;1311;47.966;7.958;2023-09-07T10:19:15;26.00;1.00
2603;DHT22;1311;47.966;7.958;2023-09-07T10:21:42;26.00;1.00
2603;DHT22;1311;47.966;7.958;2023-09-07T10:24:09;26.20;99.90
2603;DHT22;1311;47.966;7.958;2023-09-07T10:26:36;26.40;99.90
2603;DHT22;1311;47.966;7.958;2023-09-07T10:29:03;26.40;1.00
2603;DHT22;1311;47.966;7.958;2023-09-07T10:31:31;26.30;1.00
2603;DHT22;1311;47.966;7.958;2023-09-07T10:34:09;26.40;1.00
2603;DHT22;1311;47.966;7.958;2023-09-07T10:36:37;26.40;99.90
2603;DHT22;1311;47.966;7.958;2023-09-07T10:39:05;26.60;1.00
2603;DHT22;1311;47.966;7.958;2023-09-07T10:41:40;26.80;99.90
2603;DHT22;1311;47.966;7.958;2023-09-07T10:44:06;26.80;58.40
2603;DHT22;1311;47.966;7.958;2023-09-07T10:46:33;27.00;99.90
2603;DHT22;1311;47.966;7.958;2023-09-07T10:49:00;26.90;99.90
2603;DHT22;1311;47.966;7.958;2023-09-07T10:51:28;27.00;99.90
2603;DHT22;1311;47.966;7.958;2023-09-07T10:53:55;26.90;1.00
2603;DHT22;1311;47.966;7.958;2023-09-07T10:56:24;27.10;1.00
2603;DHT22;1311;47.966;7.958;2023-09-07T10:58:54;27.10;1.00
2603;DHT22;1311;47.966;7.958;2023-09-07T11:01:21;27.20;99.90
2603;DHT22;1311;47.966;7.958;2023-09-07T11:03:47;27.40;56.80
2603;DHT22;1311;47.966;7.958;2023-09-07T11:06:16;27.40;99.90
2603;DHT22;1311;47.966;7.958;2023-09-07T11:08:46;27.40;99.90
2603;DHT22;1311;47.966;7.958;2023-09-07T11:11:13;27.50;1.00
2603;DHT22;1311;47.966;7.958;2023-09-07T11:13:42;27.50;99.90
2603;DHT22;1311;47.966;7.958;2023-09-07T11:16:09;27.60;99.90
2603;DHT22;1311;47.966;7.958;2023-09-07T11:18:37;27.60;99.90
2603;DHT22;1311;47.966;7.958;2023-09-07T11:21:04;27.60;99.90
2603;DHT22;1311;47.966;7.958;2023-09-07T11:23:33;27.70;99.90
2603;DHT22;1311;47.966;7.958;2023-09-07T11:26:05;27.90;99.90
2603;DHT22;1311;47.966;7.958;2023-09-07T11:28:32;27.90;2.30
2603;DHT22;1311;47.966;7.958;2023-09-07T11:30:59;27.80;1.00
2603;DHT22;1311;47.966;7.958;2023-09-07T11:33:26;28.00;1.00
2603;DHT22;1311;47.966;7.958;2023-09-07T11:35:53;28.20;57.10
2603;DHT22;1311;47.966;7.958;2023-09-07T11:38:20;28.40;1.00
2603;DHT22;1311;47.966;7.958;2023-09-07T11:40:48;28.20;1.00
2603;DHT22;1311;47.966;7.958;2023-09-07T11:43:17;28.10;1.00
2603;DHT22;1311;47.966;7.958;2023-09-07T11:45:46;28.30;1.00
2603;DHT22;1311;47.966;7.958;2023-09-07T11:48:13;28.20;99.90
2603;DHT22;1311;47.966;7.958;2023-09-07T11:50:40;28.30;99.90
2603;DHT22;1311;47.966;7.958;2023-09-07T11:53:07;28.40;99.90
2603;DHT22;1311;47.966;7.958;2023-09-07T11:55:34;28.60;99.90
2603;DHT22;1311;47.966;7.958;2023-09-07T11:58:03;28.70;99.90
2603;DHT22;1311;47.966;7.958;2023-09-07T12:00:32;28.60;99.90
2603;DHT22;1311;47.966;7.958;2023-09-07T12:02:59;28.60;99.90
2603;DHT22;1311;47.966;7.958;2023-09-07T12:05:26;28.70;99.90
2603;DHT22;1311;47.966;7.958;2023-09-07T12:07:53;28.70;99.90
2603;DHT22;1311;47.966;7.958;2023-09-07T12:10:20;28.70;99.90
2603;DHT22;1311;47.966;7.958;2023-09-07T12:12:46;28.80;99.90
2603;DHT22;1311;47.966;7.958;2023-09-07T12:15:13;29.00;99.90
2603;DHT22;1311;47.966;7.958;2023-09-07T12:17:41;29.10;99.90
2603;DHT22;1311;47.966;7.958;2023-09-07T12:20:09;29.10;99.90
2603;DHT22;1311;47.966;7.958;2023-09-07T12:22:38;29.10;1.00
2603;DHT22;1311;47.966;7.958;2023-09-07T12:25:05;29.00;1.00
2603;DHT22;1311;47.966;7.958;2023-09-07T12:27:33;29.10;1.00
2603;DHT22;1311;47.966;7.958;2023-09-07T12:30:01;29.00;1.00
2603;DHT22;1311;47.966;7.958;2023-09-07T12:32:30;29.10;1.00
2603;DHT22;1311;47.966;7.958;2023-09-07T12:34:59;29.30;1.00
2603;DHT22;1311;47.966;7.958;2023-09-07T12:37:26;29.40;1.00
2603;DHT22;1311;47.966;7.958;2023-09-07T12:39:52;29.40;1.00
2603;DHT22;1311;47.966;7.958;2023-09-07T12:42:19;29.20;1.00
2603;DHT22;1311;47.966;7.958;2023-09-07T12:44:46;29.20;1.00
2603;DHT22;1311;47.966;7.958;2023-09-07T12:47:12;29.20;1.00
2603;DHT22;1311;47.966;7.958;2023-09-07T12:49:39;29.30;1.00
2603;DHT22;1311;47.966;7.958;2023-09-07T12:52:08;29.30;1.00
2603;DHT22;1311;47.966;7.958;2023-09-07T12:54:36;29.30;1.00
2603;DHT22;1311;47.966;7.958;2023-09-07T12:57:03;29.30;1.00
2603;DHT22;1311;47.966;7.958;2023-09-07T12:59:30;29.40;1.00
2603;DHT22;1311;47.966;7.958;2023-09-07T13:01:57;29.50;1.00
2603;DHT22;1311;47.966;7.958;2023-09-07T13:04:24;29.50;1.00
2603;DHT22;1311;47.966;7.958;2023-09-07T13:06:50;29.30;99.90
2603;DHT22;1311;47.966;7.958;2023-09-07T13:09:19;29.30;1.00
2603;DHT22;1311;47.966;7.958;2023-09-07T13:11:46;29.40;1.00
2603;DHT22;1311;47.966;7.958;2023-09-07T13:14:12;29.50;1.00
2603;DHT22;1311;47.966;7.958;2023-09-07T13:16:39;29.40;1.00
2603;DHT22;1311;47.966;7.958;2023-09-07T13:19:06;29.40;99.90
2603;DHT22;1311;47.966;7.958;2023-09-07T13:21:33;29.40;99.90
2603;DHT22;1311;47.966;7.958;2023-09-07T13:24:00;29.60;99.90
2603;DHT22;1311;47.966;7.958;2023-09-07T13:26:28;29.70;99.90
2603;DHT22;1311;47.966;7.958;2023-09-07T13:28:55;29.60;99.90
2603;DHT22;1311;47.966;7.958;2023-09-07T13:31:21;29.80;99.90
2603;DHT22;1311;47.966;7.958;2023-09-07T13:33:49;29.80;99.90
2603;DHT22;1311;47.966;7.958;2023-09-07T13:36:16;29.90;99.90
2603;DHT22;1311;47.966;7.958;2023-09-07T13:38:42;29.90;99.90
2603;DHT22;1311;47.966;7.958;2023-09-07T13:41:09;29.70;99.90
2603;DHT22;1311;47.966;7.958;2023-09-07T13:43:37;29.60;99.90
2603;DHT22;1311;47.966;7.958;2023-09-07T13:46:04;29.80;99.90
2603;DHT22;1311;47.966;7.958;2023-09-07T13:48:31;29.80;99.90
2603;DHT22;1311;47.966;7.958;2023-09-07T13:50:58;29.80;99.90
2603;DHT22;1311;47.966;7.958;2023-09-07T13:53:25;29.70;99.90
2603;DHT22;1311;47.966;7.958;2023-09-07T13:55:52;29.80;99.90
2603;DHT22;1311;47.966;7.958;2023-09-07T13:58:19;29.90;99.90
2603;DHT22;1311;47.966;7.958;2023-09-07T14:00:47;29.90;99.90
2603;DHT22;1311;47.966;7.958;2023-09-07T14:03:16;29.90;99.90
2603;DHT22;1311;47.966;7.958;2023-09-07T14:05:43;29.80;99.90
2603;DHT22;1311;47.966;7.958;2023-09-07T14:08:09;29.90;99.90
2603;DHT22;1311;47.966;7.958;2023-09-07T14:10:36;29.90;99.90
2603;DHT22;1311;47.966;7.958;2023-09-07T14:13:03;30.00;99.90
2603;DHT22;1311;47.966;7.958;2023-09-07T14:15:30;30.00;99.90
2603;DHT22;1311;47.966;7.958;2023-09-07T14:17:58;30.10;99.90
2603;DHT22;1311;47.966;7.958;2023-09-07T14:20:26;30.00;99.90
2603;DHT22;1311;47.966;7.958;2023-09-07T14:22:53;30.00;99.90
2603;DHT22;1311;47.966;7.958;2023-09-07T14:25:22;29.90;88.30
2603;DHT22;1311;47.966;7.958;2023-09-07T14:27:49;29.80;91.00
2603;DHT22;1311;47.966;7.958;2023-09-07T14:30:16;30.00;99.90
2603;DHT22;1311;47.966;7.958;2023-09-07T14:32:43;30.10;99.90
2603;DHT22;1311;47.966;7.958;2023-09-07T14:35:12;30.10;99.90
2603;DHT22;1311;47.966;7.958;2023-09-07T14:37:39;30.10;99.90
2603;DHT22;1311;47.966;7.958;2023-09-07T14:40:07;30.10;99.90
2603;DHT22;1311;47.966;7.958;2023-09-07T14:42:34;30.10;85.00
2603;DHT22;1311;47.966;7.958;2023-09-07T14:45:00;30.20;58.60
2603;DHT22;1311;47.966;7.958;2023-09-07T14:47:28;30.20;50.50
2603;DHT22;1311;47.966;7.958;2023-09-07T14:49:54;30.20;35.10
2603;DHT22;1311;47.966;7.958;2023-09-07T14:52:23;30.20;5.00
2603;DHT22;1311;47.966;7.958;2023-09-07T14:54:50;30.00;1.00
2603;DHT22;1311;47.966;7.958;2023-09-07T14:57:17;30.00;1.00
2603;DHT22;1311;47.966;7.958;2023-09-07T14:59:44;30.00;34.10
2603;DHT22;1311;47.966;7.958;2023-09-07T15:02:10;30.00;8.50
2603;DHT22;1311;47.966;7.958;2023-09-07T15:04:37;30.00;15.10
2603;DHT22;1311;47.966;7.958;2023-09-07T15:07:04;30.00;1.00
2603;DHT22;1311;47.966;7.958;2023-09-07T15:09:33;29.90;1.00
2603;DHT22;1311;47.966;7.958;2023-09-07T15:12:00;29.80;1.00
2603;DHT22;1311;47.966;7.958;2023-09-07T15:14:26;29.90;1.00
2603;DHT22;1311;47.966;7.958;2023-09-07T15:16:53;29.90;9.70
2603;DHT22;1311;47.966;7.958;2023-09-07T15:19:20;29.80;14.30
2603;DHT22;1311;47.966;7.958;2023-09-07T15:21:47;29.80;1.00
2603;DHT22;1311;47.966;7.958;2023-09-07T15:24:13;29.80;4.60
2603;DHT22;1311;47.966;7.958;2023-09-07T15:26:42;29.80;10.50
2603;DHT22;1311;47.966;7.958;2023-09-07T15:29:09;29.80;38.90
2603;DHT22;1311;47.966;7.958;2023-09-07T15:31:36;29.60;8.50
2603;DHT22;1311;47.966;7.958;2023-09-07T15:34:03;29.50;1.00
2603;DHT22;1311;47.966;7.958;2023-09-07T15:36:30;29.60;21.60
2603;DHT22;1311;47.966;7.958;2023-09-07T15:38:58;29.50;3.00
2603;DHT22;1311;47.966;7.958;2023-09-07T15:41:25;29.60;20.10
2603;DHT22;1311;47.966;7.958;2023-09-07T15:43:53;29.50;4.80
2603;DHT22;1311;47.966;7.958;2023-09-07T15:46:20;29.50;1.00
2603;DHT22;1311;47.966;7.958;2023-09-07T15:48:48;29.60;5.80
2603;DHT22;1311;47.966;7.958;2023-09-07T15:51:15;29.50;3.20
2603;DHT22;1311;47.966;7.958;2023-09-07T15:53:42;29.50;15.70
2603;DHT22;1311;47.966;7.958;2023-09-07T15:56:08;29.50;10.40
2603;DHT22;1311;47.966;7.958;2023-09-07T15:58:35;29.40;45.20
2603;DHT22;1311;47.966;7.958;2023-09-07T16:01:04;29.30;19.00
2603;DHT22;1311;47.966;7.958;2023-09-07T16:03:30;29.20;25.60
2603;DHT22;1311;47.966;7.958;2023-09-07T16:05:57;29.20;47.10